Time;durP1;ratioP1;P1;durP2;ratioP2;P2;SDS_P1;SDS_P2;PMS_P1;PMS_P2;Temp;Humidity;BMP_temperature;BMP_pressure;BME280_temperature;BME280_humidity;BME280_pressure;Samples;Min_cycle;Max_cycle;Signal;HPM_P1;HPM_P2
2024/01/10 00:00:01;;;;;;;19.92;9.48;;;-2.40;86.70;;;;;;5082226;28;20044;-74
2024/01/10 00:02:27;;;;;;;19.88;9.30;;;-2.40;86.30;;;;;;5075405;28;20063;-77
2024/01/10 00:04:52;;;;;;;19.75;9.20;;;-2.30;87.90;;;;;;5068663;28;20016;-74
2024/01/10 00:07:18;;;;;;;17.10;8.25;;;-2.30;86.90;;;;;;5065187;28;20056;-75
2024/01/10 00:09:45;;;;;;;15.75;8.82;;;-2.30;87.00;;;;;;5046714;28;20029;-75
2024/01/10 00:12:11;;;;;;;17.65;8.75;;;-2.30;88.20;;;;;;5065023;28;20024;-73
2024/01/10 00:14:37;;;;;;;18.42;9.30;;;-2.20;87.00;;;;;;5072947;28;20029;-74
2024/01/10 00:17:03;;;;;;;17.50;9.55;;;-2.20;88.10;;;;;;5082005;28;20368;-73
2024/01/10 00:19:30;;;;;;;21.85;9.77;;;-2.20;87.40;;;;;;5064752;28;20169;-72
2024/01/10 00:21:59;;;;;;;16.48;7.97;;;-2.30;87.90;;;;;;5064274;28;20025;-72
2024/01/10 00:24:24;;;;;;;22.15;9.13;;;-2.30;86.20;;;;;;5064825;28;20066;-73
2024/01/10 00:26:50;;;;;;;17.70;9.23;;;-2.30;86.50;;;;;;5064490;28;20012;-73
2024/01/10 00:29:15;;;;;;;16.75;9.15;;;-2.20;89.30;;;;;;5067689;28;20051;-70
2024/01/10 00:31:41;;;;;;;19.85;9.65;;;-2.20;87.10;;;;;;5083681;28;20115;-74
2024/01/10 00:34:07;;;;;;;19.75;9.02;;;-2.20;87.10;;;;;;5079026;28;20329;-73
2024/01/10 00:36:33;;;;;;;19.85;9.52;;;-2.20;86.20;;;;;;5084063;28;20063;-75
2024/01/10 00:38:58;;;;;;;18.17;9.50;;;-2.30;85.20;;;;;;5084099;28;20024;-73
2024/01/10 00:41:24;;;;;;;19.95;9.48;;;-2.30;85.10;;;;;;5084374;28;20016;-73
2024/01/10 00:43:53;;;;;;;18.10;8.57;;;-2.30;85.00;;;;;;5083820;28;20036;-73
2024/01/10 00:46:21;;;;;;;18.83;9.43;;;-2.30;84.90;;;;;;5066114;28;20032;-72
2024/01/10 00:48:47;;;;;;;22.05;9.50;;;-2.30;84.60;;;;;;5083559;28;20068;-74
2024/01/10 00:51:15;;;;;;;19.83;8.95;;;-2.40;84.30;;;;;;5069754;28;20260;-73
2024/01/10 00:53:42;;;;;;;19.55;9.00;;;-2.40;84.70;;;;;;5062780;28;20037;-74
2024/01/10 00:56:08;;;;;;;19.13;8.73;;;-2.40;84.70;;;;;;5063958;28;20020;-74
2024/01/10 00:58:33;;;;;;;19.45;9.48;;;-2.50;84.80;;;;;;5062930;28;20021;-76
2024/01/10 01:00:59;;;;;;;20.15;9.18;;;-2.60;84.70;;;;;;5063492;28;20028;-72
2024/01/10 01:03:37;;;;;;;19.30;9.23;;;-2.60;84.00;;;;;;5063804;28;20196;-73
2024/01/10 01:06:03;;;;;;;18.33;8.75;;;-2.60;84.30;;;;;;5064022;28;20041;-73
2024/01/10 01:08:41;;;;;;;21.48;9.50;;;-2.50;85.30;;;;;;5070169;28;20036;-72
2024/01/10 01:11:10;;;;;;;16.80;8.77;;;-2.60;84.20;;;;;;5083646;28;20041;-73
2024/01/10 01:13:41;;;;;;;18.70;9.63;;;-2.60;84.50;;;;;;5082609;28;20040;-73
2024/01/10 01:16:10;;;;;;;19.35;9.77;;;-2.60;84.70;;;;;;5065727;28;20096;-72
2024/01/10 01:18:39;;;;;;;19.65;9.52;;;-2.50;84.60;;;;;;5083416;28;20033;-74
2024/01/10 01:21:07;;;;;;;18.35;8.48;;;-2.60;84.50;;;;;;5083553;28;20047;-74
2024/01/10 01:23:36;;;;;;;18.40;9.80;;;-2.60;84.60;;;;;;5076382;28;20108;-72
2024/01/10 01:26:16;;;;;;;18.73;8.70;;;-2.60;84.90;;;;;;5083288;28;20223;-74
2024/01/10 01:28:42;;;;;;;17.70;8.75;;;-2.50;85.00;;;;;;5083179;28;20040;-73
2024/01/10 01:31:10;;;;;;;16.98;9.18;;;-2.50;84.90;;;;;;5064368;28;20104;-73
2024/01/10 01:33:39;;;;;;;18.30;9.27;;;-2.50;85.10;;;;;;5063510;28;20044;-72
2024/01/10 01:36:06;;;;;;;21.45;10.00;;;-2.50;85.40;;;;;;5063408;28;20044;-73
2024/01/10 01:38:32;;;;;;;20.50;9.38;;;-2.50;85.20;;;;;;5063044;28;20040;-72
2024/01/10 01:41:00;;;;;;;19.85;9.25;;;-2.40;85.30;;;;;;5065942;28;20025;-74
2024/01/10 01:43:26;;;;;;;19.25;9.52;;;-2.30;85.80;;;;;;5061978;28;20040;-74
2024/01/10 01:45:56;;;;;;;18.70;9.40;;;-2.30;85.30;;;;;;5062614;28;20059;-73
2024/01/10 01:48:22;;;;;;;16.42;9.00;;;-2.20;85.10;;;;;;5062517;28;20051;-73
2024/01/10 01:50:57;;;;;;;17.38;8.73;;;-2.20;85.00;;;;;;5061569;28;20244;-74
2024/01/10 01:53:23;;;;;;;20.25;9.48;;;-2.20;86.00;;;;;;5062983;28;20028;-73
2024/01/10 01:55:49;;;;;;;19.77;9.35;;;-2.10;85.40;;;;;;5067385;28;20122;-73
2024/01/10 01:58:19;;;;;;;20.75;9.55;;;-2.20;84.70;;;;;;5068773;28;20028;-75
2024/01/10 02:00:45;;;;;;;19.38;8.38;;;-2.10;86.20;;;;;;5062346;28;20279;-76
2024/01/10 02:03:11;;;;;;;15.45;8.23;;;-2.10;86.10;;;;;;5062944;28;20029;-73
2024/01/10 02:05:40;;;;;;;23.10;10.07;;;-2.10;85.40;;;;;;5060999;28;20057;-73
2024/01/10 02:08:06;;;;;;;20.55;9.05;;;-2.10;86.20;;;;;;5045045;28;20020;-73
2024/01/10 02:10:31;;;;;;;19.60;9.23;;;-2.00;85.70;;;;;;5061286;28;20203;-75
2024/01/10 02:13:01;;;;;;;19.48;8.68;;;-2.00;84.80;;;;;;5065603;28;20025;-74
2024/01/10 02:15:33;;;;;;;17.90;8.70;;;-2.10;84.40;;;;;;5061477;28;20219;-73
2024/01/10 02:18:01;;;;;;;17.58;9.18;;;-2.20;84.60;;;;;;5062126;28;20092;-72
2024/01/10 02:20:33;;;;;;;18.75;9.68;;;-2.30;85.00;;;;;;5061943;28;20128;-73
2024/01/10 02:22:58;;;;;;;21.38;9.35;;;-2.30;85.90;;;;;;5061732;28;20040;-73
2024/01/10 02:25:30;;;;;;;19.83;9.73;;;-2.40;85.90;;;;;;5062199;28;20029;-73
2024/01/10 02:27:58;;;;;;;18.98;9.30;;;-2.40;87.00;;;;;;5061596;28;20301;-73
2024/01/10 02:30:27;;;;;;;18.63;8.98;;;-2.40;86.30;;;;;;5075863;28;20028;-73
2024/01/10 02:32:52;;;;;;;19.88;9.50;;;-2.50;87.20;;;;;;5061803;28;20036;-76
2024/01/10 02:35:21;;;;;;;19.20;9.65;;;-2.40;87.60;;;;;;5062208;28;20044;-72
2024/01/10 02:37:51;;;;;;;22.45;9.52;;;-2.50;87.70;;;;;;5061821;28;20033;-74
2024/01/10 02:40:17;;;;;;;18.90;9.88;;;-2.50;89.20;;;;;;5062174;28;20032;-73
2024/01/10 02:42:50;;;;;;;18.25;9.10;;;-2.50;87.20;;;;;;5060921;28;20334;-74
2024/01/10 02:45:19;;;;;;;18.33;8.98;;;-2.60;87.10;;;;;;5062343;28;20333;-77
2024/01/10 02:47:51;;;;;;;18.83;8.68;;;-2.60;86.70;;;;;;5063302;28;20048;-73
2024/01/10 02:50:20;;;;;;;18.60;8.43;;;-2.60;88.10;;;;;;5062191;28;20036;-76
2024/01/10 02:52:45;;;;;;;18.98;9.30;;;-2.60;88.00;;;;;;5062497;28;20163;-73
2024/01/10 02:55:11;;;;;;;17.90;9.02;;;-2.70;88.10;;;;;;5062746;28;20271;-72
2024/01/10 02:57:37;;;;;;;19.75;9.63;;;-2.70;88.60;;;;;;5063772;28;20017;-72
2024/01/10 03:00:05;;;;;;;19.88;9.38;;;-2.70;88.00;;;;;;5061566;28;20258;-72
2024/01/10 03:02:34;;;;;;;19.63;9.00;;;-2.70;88.10;;;;;;5044514;28;20304;-72
2024/01/10 03:05:02;;;;;;;16.63;8.15;;;-2.60;87.90;;;;;;5061941;28;20082;-73
2024/01/10 03:07:28;;;;;;;20.73;9.07;;;-2.60;88.00;;;;;;5080957;28;20036;-73
2024/01/10 03:09:54;;;;;;;19.35;9.05;;;-2.60;88.00;;;;;;5080554;28;20036;-72
2024/01/10 03:12:22;;;;;;;18.98;9.73;;;-2.60;89.00;;;;;;5082065;28;20020;-75
2024/01/10 03:14:57;;;;;;;18.67;9.07;;;-2.50;88.70;;;;;;5081248;28;20040;-73
2024/01/10 03:17:22;;;;;;;19.10;9.68;;;-2.50;88.40;;;;;;5083244;28;20025;-71
2024/01/10 03:19:51;;;;;;;19.25;9.02;;;-2.40;88.10;;;;;;5083552;28;20092;-73
2024/01/10 03:22:20;;;;;;;19.88;10.07;;;-2.40;88.00;;;;;;5081931;28;20372;-74
2024/01/10 03:24:45;;;;;;;23.30;10.32;;;-2.40;88.10;;;;;;5076508;28;20024;-73
2024/01/10 03:27:13;;;;;;;19.10;9.55;;;-2.30;87.60;;;;;;5079256;28;20078;-75
2024/01/10 03:29:41;;;;;;;19.02;8.98;;;-2.30;87.00;;;;;;5075141;28;20033;-73
2024/01/10 03:32:07;;;;;;;19.55;9.73;;;-2.30;86.90;;;;;;5062349;28;20307;-74
2024/01/10 03:34:36;;;;;;;19.13;9.57;;;-2.30;86.90;;;;;;5065836;28;20051;-72
2024/01/10 03:37:01;;;;;;;18.25;9.15;;;-2.20;88.40;;;;;;5065340;28;20056;-72
2024/01/10 03:39:30;;;;;;;19.20;10.32;;;-2.20;87.70;;;;;;5065153;28;20216;-73
2024/01/10 03:41:59;;;;;;;17.38;8.70;;;-2.20;87.90;;;;;;5072944;28;20031;-72
2024/01/10 03:44:30;;;;;;;18.98;8.95;;;-2.20;87.00;;;;;;5085479;28;20037;-73
2024/01/10 03:46:56;;;;;;;22.05;9.90;;;-2.10;88.00;;;;;;5084676;28;20303;-73
2024/01/10 03:49:21;;;;;;;19.42;9.65;;;-2.10;87.60;;;;;;5085126;28;20048;-73
2024/01/10 03:51:53;;;;;;;18.00;8.75;;;-2.10;87.40;;;;;;5085017;28;20071;-74
2024/01/10 03:54:24;;;;;;;19.25;9.85;;;-2.10;87.60;;;;;;5085046;28;20036;-75
2024/01/10 03:56:52;;;;;;;18.75;9.40;;;-2.10;87.70;;;;;;5084869;28;20037;-72
2024/01/10 03:59:18;;;;;;;18.70;9.52;;;-2.10;87.40;;;;;;5083081;28;20029;-72
2024/01/10 04:01:43;;;;;;;17.27;8.43;;;-2.10;88.20;;;;;;5065358;28;20033;-72
2024/01/10 04:04:09;;;;;;;20.52;9.35;;;-2.10;88.00;;;;;;5065370;28;20088;-72
2024/01/10 04:06:35;;;;;;;19.35;8.88;;;-2.10;89.00;;;;;;5063868;28;20032;-73
2024/01/10 04:09:04;;;;;;;20.33;10.07;;;-2.10;88.40;;;;;;5063175;28;20088;-73
2024/01/10 04:11:32;;;;;;;19.02;9.98;;;-2.10;88.40;;;;;;5063919;28;20050;-74
2024/01/10 04:14:01;;;;;;;20.90;10.52;;;-2.10;87.90;;;;;;5064367;28;20214;-74
2024/01/10 04:16:27;;;;;;;23.33;10.65;;;-2.10;87.80;;;;;;5068484;28;20094;-73
2024/01/10 04:18:59;;;;;;;22.00;10.43;;;-2.10;87.80;;;;;;5064229;28;20292;-74
2024/01/10 04:21:24;;;;;;;21.38;10.05;;;-2.20;88.00;;;;;;5064769;28;20224;-73
2024/01/10 04:23:53;;;;;;;20.75;9.75;;;-2.10;88.40;;;;;;5062914;28;20040;-73
2024/01/10 04:26:25;;;;;;;19.73;8.90;;;-2.10;88.50;;;;;;5064352;28;20017;-76
2024/01/10 04:28:53;;;;;;;20.67;10.65;;;-2.10;88.20;;;;;;5063925;28;20044;-75
2024/01/10 04:31:25;;;;;;;19.25;9.50;;;-2.10;88.20;;;;;;5064381;28;20040;-74
2024/01/10 04:33:59;;;;;;;20.83;11.02;;;-2.00;88.90;;;;;;5065779;28;20111;-73
2024/01/10 04:36:25;;;;;;;21.08;10.90;;;-2.00;88.00;;;;;;5064551;28;20074;-75
2024/01/10 04:38:56;;;;;;;24.95;11.55;;;-2.10;87.90;;;;;;5063805;28;20024;-72
2024/01/10 04:41:22;;;;;;;25.02;11.55;;;-2.10;88.70;;;;;;5062903;28;20033;-72
2024/01/10 04:43:51;;;;;;;20.20;10.77;;;-2.00;89.00;;;;;;5063489;28;20059;-76
2024/01/10 04:46:17;;;;;;;20.83;11.40;;;-2.00;88.30;;;;;;5064035;28;20021;-73
2024/01/10 04:48:47;;;;;;;22.55;11.95;;;-2.10;87.60;;;;;;5063298;28;20044;-73
2024/01/10 04:51:14;;;;;;;23.90;10.70;;;-2.10;88.00;;;;;;5067522;28;20021;-76
2024/01/10 04:53:40;;;;;;;20.20;10.57;;;-2.10;88.50;;;;;;5063943;28;20208;-72
2024/01/10 04:56:06;;;;;;;27.20;11.75;;;-2.10;88.50;;;;;;5062246;28;20044;-73
2024/01/10 04:58:36;;;;;;;23.02;11.88;;;-2.20;88.60;;;;;;5063926;28;20061;-73
2024/01/10 05:01:05;;;;;;;25.30;12.38;;;-2.20;89.10;;;;;;5063788;28;20261;-73
2024/01/10 05:03:31;;;;;;;23.05;11.60;;;-2.20;88.90;;;;;;5062855;28;20029;-73
2024/01/10 05:05:59;;;;;;;25.15;11.93;;;-2.10;89.30;;;;;;5063453;28;20040;-74
2024/01/10 05:08:31;;;;;;;21.80;11.63;;;-2.10;89.30;;;;;;5067736;28;20016;-75
2024/01/10 05:10:57;;;;;;;23.10;11.30;;;-2.10;89.60;;;;;;5063592;28;20033;-76
2024/01/10 05:13:28;;;;;;;23.05;11.77;;;-2.10;89.90;;;;;;5063801;28;20025;-73
2024/01/10 05:15:57;;;;;;;23.55;11.85;;;-2.20;89.30;;;;;;5063437;28;20361;-75
2024/01/10 05:18:26;;;;;;;26.73;12.02;;;-2.20;88.80;;;;;;5063707;28;20100;-72
2024/01/10 05:20:58;;;;;;;26.98;13.10;;;-2.20;89.00;;;;;;5061660;28;20319;-73
2024/01/10 05:23:27;;;;;;;23.13;11.85;;;-2.30;89.10;;;;;;5063217;28;20105;-74
2024/01/10 05:25:55;;;;;;;22.60;11.07;;;-2.30;89.10;;;;;;5066606;28;20037;-74
2024/01/10 05:28:27;;;;;;;23.23;10.77;;;-2.30;88.80;;;;;;5063147;28;20333;-73
2024/01/10 05:30:55;;;;;;;23.60;12.10;;;-2.40;90.00;;;;;;5078612;28;20032;-73
2024/01/10 05:33:21;;;;;;;23.65;11.55;;;-2.40;89.50;;;;;;5083518;28;20037;-74
2024/01/10 05:35:47;;;;;;;24.58;12.02;;;-2.50;89.90;;;;;;5082133;28;20016;-74
2024/01/10 05:38:15;;;;;;;23.27;11.68;;;-2.50;90.40;;;;;;5083625;28;20063;-73
2024/01/10 05:40:47;;;;;;;22.67;12.27;;;-2.60;90.20;;;;;;5075951;28;20025;-71
2024/01/10 05:43:22;;;;;;;24.55;11.77;;;-2.60;90.20;;;;;;5067642;28;20099;-74
2024/01/10 05:45:53;;;;;;;21.45;11.45;;;-2.70;90.40;;;;;;5067305;28;20044;-72
2024/01/10 05:48:22;;;;;;;24.85;12.77;;;-2.80;90.50;;;;;;5068310;28;20071;-73
2024/01/10 05:50:48;;;;;;;23.42;12.50;;;-2.80;90.70;;;;;;5065101;28;20071;-72
2024/01/10 05:53:19;;;;;;;23.15;12.00;;;-2.90;90.70;;;;;;5067244;28;20020;-74
2024/01/10 05:55:45;;;;;;;24.85;12.98;;;-3.00;91.00;;;;;;5064594;28;20204;-74
2024/01/10 05:58:17;;;;;;;29.95;13.57;;;-3.00;91.00;;;;;;5078831;28;20032;-79
2024/01/10 06:00:48;;;;;;;24.67;12.55;;;-3.00;91.10;;;;;;5082385;28;20079;-76
2024/01/10 06:03:17;;;;;;;26.55;12.68;;;-3.00;91.00;;;;;;5082912;28;20036;-76
2024/01/10 06:05:48;;;;;;;24.02;12.25;;;-3.00;91.20;;;;;;5082038;28;20032;-76
2024/01/10 06:08:25;;;;;;;23.95;12.25;;;-3.00;91.00;;;;;;5064668;28;20028;-77
2024/01/10 06:10:51;;;;;;;25.95;13.07;;;-3.00;91.10;;;;;;5064597;28;20036;-75
2024/01/10 06:13:17;;;;;;;22.90;12.20;;;-3.10;91.10;;;;;;5083042;28;20093;-74
2024/01/10 06:15:46;;;;;;;27.35;14.15;;;-3.10;91.10;;;;;;5070729;28;20041;-76
2024/01/10 06:18:11;;;;;;;24.98;13.80;;;-3.10;91.40;;;;;;5061254;28;20141;-75
2024/01/10 06:20:40;;;;;;;27.50;13.52;;;-3.10;91.50;;;;;;5062493;28;20158;-74
2024/01/10 06:23:06;;;;;;;24.42;11.85;;;-3.10;91.40;;;;;;5060627;28;20041;-77
2024/01/10 06:25:31;;;;;;;25.75;12.80;;;-3.20;91.40;;;;;;5044169;28;20019;-76
2024/01/10 06:27:59;;;;;;;24.58;12.90;;;-3.20;91.80;;;;;;5061935;28;20028;-77
2024/01/10 06:30:31;;;;;;;27.63;12.88;;;-3.20;91.80;;;;;;5073834;28;20062;-77
2024/01/10 06:33:00;;;;;;;25.33;12.93;;;-3.30;91.80;;;;;;5076099;28;20299;-76
2024/01/10 06:35:29;;;;;;;25.25;13.40;;;-3.30;92.20;;;;;;5064588;28;20058;-74
2024/01/10 06:37:55;;;;;;;24.17;12.90;;;-3.30;92.20;;;;;;5081114;28;20214;-74
2024/01/10 06:40:24;;;;;;;26.27;12.52;;;-3.30;92.60;;;;;;5081146;28;20048;-79
2024/01/10 06:42:49;;;;;;;24.35;12.18;;;-3.20;92.70;;;;;;5064219;28;20059;-75
2024/01/10 06:45:15;;;;;;;24.38;11.52;;;-3.20;93.10;;;;;;5064357;28;20020;-77
2024/01/10 06:47:41;;;;;;;24.67;12.68;;;-3.20;92.80;;;;;;5080848;28;20034;-77
2024/01/10 06:50:09;;;;;;;25.38;12.60;;;-3.20;92.80;;;;;;5076241;28;20303;-74
2024/01/10 06:52:38;;;;;;;24.58;12.30;;;-3.20;92.80;;;;;;5081979;28;20100;-78
2024/01/10 06:55:08;;;;;;;26.85;12.75;;;-3.30;92.30;;;;;;5063753;28;20302;-76
2024/01/10 06:57:33;;;;;;;27.20;12.93;;;-3.40;92.40;;;;;;5082341;28;20024;-76
2024/01/10 06:59:59;;;;;;;23.80;12.95;;;-3.40;92.60;;;;;;5080336;28;20111;-76
2024/01/10 07:02:32;;;;;;;25.60;12.85;;;-3.50;92.70;;;;;;5082159;28;20219;-76
2024/01/10 07:05:00;;;;;;;26.58;12.90;;;-3.50;92.90;;;;;;5081801;28;20122;-77
2024/01/10 07:07:29;;;;;;;25.88;12.15;;;-3.50;93.10;;;;;;5082339;28;20029;-77
2024/01/10 07:09:54;;;;;;;25.58;12.60;;;-3.40;93.40;;;;;;5066458;28;20055;-76
2024/01/10 07:12:29;;;;;;;23.80;11.57;;;-3.50;93.10;;;;;;5048251;28;20016;-78
2024/01/10 07:14:58;;;;;;;25.42;13.10;;;-3.50;93.60;;;;;;5065488;28;20064;-76
2024/01/10 07:17:26;;;;;;;23.25;11.93;;;-3.40;93.50;;;;;;5064615;28;20331;-77
2024/01/10 07:19:52;;;;;;;22.48;12.20;;;-3.40;93.50;;;;;;5047741;28;20016;-77
2024/01/10 07:22:21;;;;;;;24.27;11.93;;;-3.40;94.10;;;;;;5048239;28;20035;-76
2024/01/10 07:24:49;;;;;;;29.90;14.60;;;-3.40;93.50;;;;;;5047531;28;20300;-75
2024/01/10 07:27:21;;;;;;;23.13;12.55;;;-3.50;93.40;;;;;;5067957;28;20021;-75
2024/01/10 07:29:50;;;;;;;25.42;13.93;;;-3.50;93.20;;;;;;5071792;28;20032;-76
2024/01/10 07:32:24;;;;;;;27.02;14.55;;;-3.60;93.20;;;;;;5085832;28;20028;-77
2024/01/10 07:34:52;;;;;;;26.40;13.55;;;-3.60;93.40;;;;;;5067161;28;20036;-79
2024/01/10 07:37:20;;;;;;;28.63;13.88;;;-3.60;93.50;;;;;;5086192;28;20167;-75
2024/01/10 07:39:50;;;;;;;24.85;13.35;;;-3.60;93.50;;;;;;5084034;28;20040;-76
2024/01/10 07:42:19;;;;;;;26.20;13.55;;;-3.60;93.60;;;;;;5067722;28;20024;-75
2024/01/10 07:44:53;;;;;;;22.25;13.23;;;-3.50;93.90;;;;;;5079521;28;20032;-75
2024/01/10 07:47:19;;;;;;;28.65;14.02;;;-3.50;93.90;;;;;;5085160;28;20109;-74
2024/01/10 07:49:45;;;;;;;26.35;13.20;;;-3.40;93.90;;;;;;5085572;28;20048;-72
2024/01/10 07:52:16;;;;;;;25.42;13.43;;;-3.30;93.90;;;;;;5085010;28;20066;-73
2024/01/10 07:54:42;;;;;;;32.25;14.05;;;-3.20;93.40;;;;;;5084742;28;20048;-74
2024/01/10 07:57:11;;;;;;;28.52;14.18;;;-3.20;93.00;;;;;;5084394;28;20155;-73
2024/01/10 07:59:36;;;;;;;28.95;13.73;;;-3.10;92.90;;;;;;5084861;28;20304;-74
2024/01/10 08:02:25;;;;;;;26.45;13.55;;;-3.00;92.70;;;;;;5082620;28;20017;-73
2024/01/10 08:04:54;;;;;;;25.70;13.65;;;-2.90;92.80;;;;;;5058504;28;20052;-72
2024/01/10 08:07:41;;;;;;;27.20;13.73;;;-2.80;92.60;;;;;;5064867;28;20044;-73
2024/01/10 08:10:13;;;;;;;24.60;13.32;;;-2.60;92.90;;;;;;5064444;28;20264;-74
2024/01/10 08:12:42;;;;;;;26.88;13.05;;;-2.50;92.30;;;;;;5064390;28;20350;-74
2024/01/10 08:15:11;;;;;;;24.13;13.02;;;-2.40;92.10;;;;;;5079658;28;20040;-74
2024/01/10 08:17:43;;;;;;;24.45;12.75;;;-2.30;91.90;;;;;;5068378;28;20084;-74
2024/01/10 08:20:20;;;;;;;25.65;12.13;;;-2.20;91.60;;;;;;5064163;28;20060;-72
2024/01/10 08:22:48;;;;;;;23.45;12.15;;;-2.10;92.10;;;;;;5057108;28;20094;-73
2024/01/10 08:25:18;;;;;;;23.90;11.85;;;-1.90;92.10;;;;;;5084776;28;20104;-77
2024/01/10 08:27:45;;;;;;;25.42;12.60;;;-1.80;91.40;;;;;;5084139;28;20028;-74
2024/01/10 08:30:11;;;;;;;25.33;12.75;;;-1.70;90.90;;;;;;5083648;28;20030;-73
2024/01/10 08:32:42;;;;;;;25.92;13.18;;;-1.70;90.80;;;;;;5084644;28;20338;-74
2024/01/10 08:35:10;;;;;;;28.63;13.63;;;-1.70;90.50;;;;;;5083205;28;20041;-74
2024/01/10 08:37:37;;;;;;;27.38;13.88;;;-1.70;90.10;;;;;;5084128;28;20028;-74
2024/01/10 08:40:09;;;;;;;25.80;13.52;;;-1.80;89.90;;;;;;5084511;28;20074;-74
2024/01/10 08:42:35;;;;;;;27.35;13.25;;;-1.70;90.20;;;;;;5084949;28;20017;-73
2024/01/10 08:45:04;;;;;;;26.75;13.77;;;-1.50;89.90;;;;;;5084522;28;20211;-75
2024/01/10 08:47:34;;;;;;;24.70;12.82;;;-1.50;90.10;;;;;;5082204;28;20043;-73
2024/01/10 08:50:04;;;;;;;29.17;14.43;;;-1.40;90.00;;;;;;5066646;28;20048;-74
2024/01/10 08:52:33;;;;;;;26.90;13.50;;;-1.50;89.00;;;;;;5071087;28;20035;-74
2024/01/10 08:55:01;;;;;;;39.63;15.38;;;-1.50;89.60;;;;;;5081919;28;20032;-74
2024/01/10 08:57:27;;;;;;;38.67;15.05;;;-1.50;89.50;;;;;;5082443;28;20017;-75
2024/01/10 08:59:55;;;;;;;34.60;15.95;;;-1.50;90.00;;;;;;5064045;28;20067;-74
2024/01/10 09:02:27;;;;;;;30.38;14.82;;;-1.50;90.30;;;;;;5063762;28;20055;-74
2024/01/10 09:04:53;;;;;;;26.98;14.05;;;-1.40;90.40;;;;;;5071491;28;20016;-74
2024/01/10 09:07:21;;;;;;;29.00;15.38;;;-1.30;90.40;;;;;;5082260;28;20048;-75
2024/01/10 09:09:49;;;;;;;37.08;16.33;;;-1.30;90.30;;;;;;5079468;28;20026;-74
2024/01/10 09:12:18;;;;;;;31.25;14.65;;;-1.30;90.30;;;;;;5084256;28;20017;-76
2024/01/10 09:14:44;;;;;;;29.17;14.50;;;-1.30;90.40;;;;;;5083724;28;20103;-74
2024/01/10 09:17:12;;;;;;;30.52;14.70;;;-1.30;90.20;;;;;;5082738;28;20078;-74
2024/01/10 09:19:38;;;;;;;28.10;15.02;;;-1.20;90.40;;;;;;5083603;28;20020;-75
2024/01/10 09:22:04;;;;;;;29.23;14.77;;;-1.20;90.30;;;;;;5073911;28;20087;-74
2024/01/10 09:24:29;;;;;;;32.10;15.68;;;-1.20;90.20;;;;;;5063149;28;20040;-77
2024/01/10 09:27:01;;;;;;;31.73;14.98;;;-1.20;90.00;;;;;;5063954;28;20021;-74
2024/01/10 09:29:34;;;;;;;30.10;14.82;;;-1.20;89.90;;;;;;5062196;28;20075;-74
2024/01/10 09:32:04;;;;;;;29.75;14.70;;;-1.10;90.60;;;;;;5063016;28;20064;-74
2024/01/10 09:34:32;;;;;;;29.27;15.73;;;-1.00;90.50;;;;;;5063310;28;20312;-77
2024/01/10 09:37:02;;;;;;;30.70;16.58;;;-0.90;90.20;;;;;;5063286;28;20048;-75
2024/01/10 09:39:30;;;;;;;32.28;16.48;;;-0.90;89.80;;;;;;5063251;28;20020;-74
2024/01/10 09:42:01;;;;;;;30.45;14.93;;;-0.90;89.00;;;;;;5062760;28;20320;-74
2024/01/10 09:44:33;;;;;;;30.50;17.05;;;-0.90;89.10;;;;;;5071086;28;20021;-74
2024/01/10 09:47:02;;;;;;;34.85;15.85;;;-1.00;88.90;;;;;;5082436;28;20204;-75
2024/01/10 09:49:32;;;;;;;33.58;16.15;;;-1.00;89.30;;;;;;5083336;28;20074;-74
2024/01/10 09:52:01;;;;;;;32.67;15.52;;;-0.90;89.50;;;;;;5081916;28;20067;-75
2024/01/10 09:54:35;;;;;;;30.25;15.45;;;-0.80;88.80;;;;;;5083148;28;20037;-77
2024/01/10 09:57:01;;;;;;;29.92;15.50;;;-0.70;88.90;;;;;;5066493;28;20036;-75
2024/01/10 09:59:29;;;;;;;29.60;15.82;;;-0.80;88.80;;;;;;5063464;28;20093;-76
2024/01/10 10:01:58;;;;;;;32.00;16.05;;;-0.80;89.60;;;;;;5079854;28;20028;-76
2024/01/10 10:04:28;;;;;;;35.90;15.63;;;-0.60;89.30;;;;;;5082743;28;20043;-75
2024/01/10 10:07:03;;;;;;;32.60;15.95;;;-0.60;88.90;;;;;;5082592;28;20037;-75
2024/01/10 10:09:32;;;;;;;29.48;16.60;;;-0.50;89.30;;;;;;5065017;28;20044;-76
2024/01/10 10:12:01;;;;;;;33.78;16.38;;;-0.40;89.00;;;;;;5081986;28;20051;-74
2024/01/10 10:14:30;;;;;;;31.55;15.70;;;-0.30;89.00;;;;;;5082523;28;20071;-73
2024/01/10 10:16:56;;;;;;;32.10;17.02;;;-0.20;88.80;;;;;;5082271;28;20016;-75
2024/01/10 10:19:28;;;;;;;32.33;15.52;;;-0.10;88.30;;;;;;5077654;28;20046;-74
2024/01/10 10:22:10;;;;;;;33.42;15.80;;;-0.10;87.90;;;;;;5081073;28;20051;-72
2024/01/10 10:24:35;;;;;;;30.45;16.10;;;0.00;88.00;;;;;;5082957;28;20040;-74
2024/01/10 10:27:20;;;;;;;33.00;16.45;;;0.00;87.30;;;;;;5079868;28;20040;-74
2024/01/10 10:29:48;;;;;;;31.70;16.05;;;0.00;87.60;;;;;;5084026;28;20033;-72
2024/01/10 10:32:15;;;;;;;31.13;16.38;;;0.10;87.80;;;;;;5072573;28;20051;-75
2024/01/10 10:34:44;;;;;;;32.42;16.30;;;0.20;87.30;;;;;;5071795;28;20021;-76
2024/01/10 10:37:12;;;;;;;39.08;17.20;;;0.20;87.70;;;;;;5066884;28;20032;-74
2024/01/10 10:39:38;;;;;;;30.92;16.45;;;0.20;88.80;;;;;;5065226;28;20032;-73
2024/01/10 10:42:07;;;;;;;31.95;15.57;;;0.40;88.40;;;;;;5081478;28;20020;-77
2024/01/10 10:44:38;;;;;;;29.30;15.57;;;0.60;87.80;;;;;;5081379;28;20046;-74
2024/01/10 10:47:09;;;;;;;31.70;16.30;;;0.70;87.10;;;;;;5082304;28;20036;-75
2024/01/10 10:49:38;;;;;;;30.17;16.48;;;0.80;86.30;;;;;;5082007;28;20048;-76
2024/01/10 10:52:10;;;;;;;32.33;16.60;;;0.80;85.50;;;;;;5082021;28;20032;-75
2024/01/10 10:54:39;;;;;;;30.42;15.80;;;0.80;86.20;;;;;;5064588;28;20037;-74
2024/01/10 10:57:09;;;;;;;34.47;17.20;;;0.80;86.00;;;;;;5061607;28;20048;-74
2024/01/10 10:59:41;;;;;;;32.55;16.63;;;1.10;86.10;;;;;;5029479;28;20025;-77
2024/01/10 11:02:27;;;;;;;33.85;15.63;;;1.40;85.40;;;;;;5061135;28;20099;-76
2024/01/10 11:04:54;;;;;;;33.08;17.25;;;1.70;84.00;;;;;;5027516;28;20024;-72
2024/01/10 11:07:24;;;;;;;31.27;17.17;;;1.70;83.10;;;;;;5062359;28;20092;-75
2024/01/10 11:09:58;;;;;;;27.35;15.70;;;2.00;82.70;;;;;;5062137;28;20037;-75
2024/01/10 11:12:54;;;;;;;33.28;18.13;;;2.00;82.30;;;;;;5043603;28;20093;-74
2024/01/10 11:15:42;;;;;;;31.98;17.15;;;2.30;82.10;;;;;;5046352;28;22866;-74
2024/01/10 11:18:28;;;;;;;30.55;16.85;;;3.00;80.80;;;;;;5061311;28;20327;-77
2024/01/10 11:21:09;;;;;;;30.13;16.13;;;3.30;79.30;;;;;;5077437;28;20376;-76
2024/01/10 11:24:03;;;;;;;30.05;17.65;;;3.80;79.10;;;;;;5081840;28;20044;-77
2024/01/10 11:26:28;;;;;;;29.92;17.25;;;3.80;77.80;;;;;;5063934;28;20276;-75
2024/01/10 11:29:00;;;;;;;29.80;17.92;;;4.40;77.00;;;;;;5079709;28;20239;-76
2024/01/10 11:31:33;;;;;;;28.23;17.30;;;4.70;75.50;;;;;;5043663;28;20086;-75
2024/01/10 11:34:04;;;;;;;26.85;17.13;;;5.10;74.60;;;;;;5056554;28;20124;-75
2024/01/10 11:37:00;;;;;;;29.23;17.42;;;5.10;73.40;;;;;;5062817;28;20105;-73
2024/01/10 11:39:38;;;;;;;28.45;17.90;;;5.50;72.90;;;;;;5081334;28;20048;-78
2024/01/10 11:42:21;;;;;;;26.27;17.63;;;5.80;73.20;;;;;;5081320;28;20032;-74
2024/01/10 11:44:53;;;;;;;29.15;18.02;;;6.20;71.00;;;;;;5063478;28;20105;-75
2024/01/10 11:47:20;;;;;;;26.92;17.73;;;5.90;71.00;;;;;;5063691;28;20126;-75
2024/01/10 11:50:03;;;;;;;26.52;17.33;;;6.30;71.20;;;;;;5076360;28;20048;-73
2024/01/10 11:52:36;;;;;;;26.58;16.40;;;7.10;70.10;;;;;;5043889;28;20049;-75
2024/01/10 11:55:04;;;;;;;26.67;17.98;;;7.40;69.40;;;;;;5084825;28;20037;-74
2024/01/10 11:57:41;;;;;;;26.83;17.00;;;8.10;67.60;;;;;;5067859;28;20068;-74
2024/01/10 12:00:36;;;;;;;27.58;18.17;;;8.50;66.20;;;;;;5078053;28;20017;-76
2024/01/10 12:03:05;;;;;;;26.30;18.23;;;8.80;65.00;;;;;;5038379;28;20256;-76
2024/01/10 12:05:38;;;;;;;27.00;17.63;;;8.60;64.80;;;;;;5064722;28;20116;-75
2024/01/10 12:08:08;;;;;;;28.35;19.27;;;8.50;64.50;;;;;;5066173;28;20195;-76
2024/01/10 12:10:46;;;;;;;26.00;17.88;;;8.30;64.90;;;;;;5060512;28;20037;-76
2024/01/10 12:13:11;;;;;;;27.55;18.52;;;9.10;64.60;;;;;;5046226;28;20055;-76
2024/01/10 12:15:37;;;;;;;27.70;18.58;;;9.60;62.90;;;;;;5071809;28;20045;-76
2024/01/10 12:18:04;;;;;;;26.58;17.42;;;10.10;62.10;;;;;;5081654;28;20171;-76
2024/01/10 12:20:29;;;;;;;27.10;18.00;;;10.30;62.40;;;;;;5064587;28;20017;-76
2024/01/10 12:22:56;;;;;;;27.90;18.45;;;10.10;62.30;;;;;;5064445;28;20021;-75
2024/01/10 12:25:33;;;;;;;25.90;18.20;;;10.00;61.30;;;;;;5064765;28;20045;-77
2024/01/10 12:28:02;;;;;;;26.75;17.67;;;10.20;61.20;;;;;;5083029;28;20342;-76
2024/01/10 12:30:28;;;;;;;26.02;18.48;;;10.90;60.90;;;;;;5070967;28;20044;-75
2024/01/10 12:32:54;;;;;;;26.67;18.27;;;11.40;58.90;;;;;;5083752;28;20019;-74
2024/01/10 12:35:22;;;;;;;26.27;17.13;;;11.00;58.90;;;;;;5084829;28;20063;-73
2024/01/10 12:37:57;;;;;;;26.55;17.73;;;10.50;59.00;;;;;;5084518;28;20044;-75
2024/01/10 12:40:23;;;;;;;25.73;17.50;;;9.90;61.30;;;;;;5084406;28;20024;-75